Flight Track Log - Related Links

Times and Time Zones

All times are in EDT time to prevent confusion due to time zone crossing. See the N382DJ flight status page for this flight to view local times or setup timezone preferences in your user account.

Time Position Orientation Groundspeed Altitude Reporting Facility
EDT Latitude Longitude Course Direction KTS MPH feet Rate Location/Type
Sun 07:22:51 PM 43.9342 -121.4067 10° North 144 166 6,900  Level Seattle Center
Sun 07:23:52 PM 43.9850 -121.3906 13° North 167 192 7,000 590 Climbing Seattle Center
Sun 07:24:53 PM 44.0303 -121.3758 13° North 170 196 8,100 1,033 Climbing Seattle Center
Sun 07:25:54 PM 44.0708 -121.3622 14° North 156 180 9,100 1,082 Climbing Seattle Center
Sun 07:26:55 PM 44.1122 -121.3492 13° North 152 175 10,300 1,230 Climbing Seattle Center
Sun 07:27:56 PM 44.1503 -121.3372 13° North 141 162 11,600 1,082 Climbing Seattle Center
Sun 07:28:00 PM 44.0958 -121.3552 10° North  Level FlightAware Approximate
Sun 07:28:57 PM 44.1897 -121.3247 13° North 141 162 12,500  Level Seattle Center
Sun 07:29:58 PM 44.2408 -121.3081 13° North 154 177 13,000 248 Climbing Seattle Center
Sun 07:30:58 PM 44.2794 -121.3431 327° Northwest 165 190 13,000  Level Seattle Center
Sun 07:31:59 PM 44.3108 -121.3897 313° West 165 190 13,000  Level Seattle Center
Sun 07:33:00 PM 44.3406 -121.4328 314° West 155 178 13,000  Level Seattle Center
Sun 07:34:01 PM 44.3725 -121.4797 314° West 162 186 13,000  Level Seattle Center
Sun 07:35:02 PM 44.4025 -121.5250 313° West 165 190 13,000  Level Seattle Center
Sun 07:36:03 PM 44.4328 -121.5686 314° West 160 184 13,000  Level Seattle Center
Sun 07:37:04 PM 44.4617 -121.6119 313° West 153 176 13,000  Level Seattle Center
Sun 07:38:05 PM 44.4886 -121.6531 313° West 146 168 13,000  Level Seattle Center
Sun 07:39:06 PM 44.5169 -121.6944 314° West 146 168 13,000  Level Seattle Center
Sun 07:40:06 PM 44.5447 -121.7353 314° West 144 166 13,000  Level Seattle Center
Sun 07:41:07 PM 44.5750 -121.7800 314° West 154 177 13,000  Level Seattle Center
Sun 07:42:08 PM 44.6014 -121.8211 312° West 145 167 13,000  Level Seattle Center
Sun 07:43:09 PM 44.6269 -121.8606 312° West 138 159 13,000  Level Seattle Center
Sun 07:44:10 PM 44.6539 -121.8997 314° West 138 159 13,000 49 Level Seattle Center
Sun 07:45:11 PM 44.6800 -121.9394 313° West 135 155 13,100 50 Climbing Seattle Center
Sun 07:46:11 PM 44.7083 -121.9814 314° West 144 166 13,100  Level Seattle Center
Sun 07:47:12 PM 44.7406 -122.0306 313° West 143 165 13,100  Level Seattle Center
Sun 07:48:13 PM 44.7669 -122.0717 312° West 141 162 13,100 -71 Level Seattle Center
Sun 07:48:37 PM 44.7761 -122.0903 305° West 145 167 13,000 -295 Descending Seattle Center
Sun 07:49:14 PM 44.7956 -122.1147 318° Northwest 147 169 12,800 -500 Descending Seattle Center
Sun 07:49:37 PM 44.8047 -122.1333 305° West 152 175 12,500 -689 Descending Seattle Center
Sun 07:50:15 PM 44.8236 -122.1583 317° Northwest 150 173 12,100 -787 Descending Seattle Center
Sun 07:50:38 PM 44.8333 -122.1767 307° West 151 174 11,700 -885 Descending Seattle Center
Sun 07:51:16 PM 44.8522 -122.2031 315° West 152 175 11,200 -896 Descending Seattle Center
Sun 07:51:45 PM 44.8681 -122.2294 310° West 159 183 10,700 -700 Descending Seattle Center
Sun 07:52:16 PM 44.8861 -122.2422 333° Northwest 159 183 10,500 -600 Descending Seattle Center
Sun 07:52:45 PM 44.9069 -122.2592 330° Northwest 160 184 10,100 -689 Descending Seattle Center
Sun 07:53:17 PM 44.9247 -122.2728 332° Northwest 161 185 9,800 -787 Descending Seattle Center
Sun 07:53:46 PM 44.9456 -122.2892 331° Northwest 156 180 9,300 -689 Descending Seattle Center
Sun 07:54:18 PM 44.9625 -122.3025 331° Northwest 157 181 9,100 -655 Descending Seattle Center
Sun 07:54:41 PM 44.9817 -122.3172 331° Northwest 160 184 8,700 -689 Descending Seattle Center
Sun 07:55:19 PM 45.0031 -122.3322 334° Northwest 161 185 8,400 -700 Descending Seattle Center
Sun 07:55:41 PM 45.0211 -122.3500 325° Northwest 167 192 8,000 -689 Descending Seattle Center
Sun 07:56:20 PM 45.0428 -122.3642 335° Northwest 164 189 7,700 -689 Descending Seattle Center
Sun 07:56:42 PM 45.0622 -122.3819 327° Northwest 169 194 7,300 -700 Descending Seattle Center
Sun 07:57:20 PM 45.0833 -122.3983 331° Northwest 168 193 7,000 -700 Descending Seattle Center
Sun 07:57:42 PM 45.1036 -122.4142 331° Northwest 174 200 6,600 -689 Descending Seattle Center
Sun 07:58:21 PM 45.1253 -122.4336 328° Northwest 172 198 6,300 -590 Descending Seattle Center
Sun 07:58:43 PM 45.1461 -122.4519 328° Northwest 175 201 6,000 -393 Descending Seattle Center
Sun 07:59:22 PM 45.1667 -122.4692 329° Northwest 174 200 5,900 -98 Descending Seattle Center
Sun 07:59:44 PM 45.1858 -122.4878 326° Northwest 155 178 5,900 -393 Level Seattle Center
Sun 08:00:23 PM 45.2042 -122.4992 336° Northwest 164 189 5,500 -800 Descending Seattle Center
Sun 08:00:44 PM 45.2267 -122.5172 331° Northwest 162 186 5,100 -900 Descending Seattle Center
Sun 08:01:23 PM 45.2514 -122.5350 333° Northwest 161 185 4,600 -689 Descending Seattle Center
Sun 08:01:45 PM 45.2653 -122.5475 328° Northwest 165 190 4,400 -689 Descending Seattle Center
Sun 08:02:24 PM 45.2922 -122.5681 332° Northwest 165 190 3,900 -787 Descending Seattle Center
Sun 08:02:46 PM 45.3064 -122.5797 330° Northwest 166 191 3,600 -787 Descending Seattle Center
Sun 08:03:25 PM 45.3325 -122.5981 334° Northwest 166 191 3,100 -600 Descending Seattle Center
Sun 08:03:46 PM 45.3486 -122.6056 342° North 168 193 3,000 -197 Descending Seattle Center
Sun 08:04:26 PM 45.3750 -122.6200 339° North 165 190 2,900  Descending Seattle Center
Sun 08:04:47 PM 45.3869 -122.6239 347° North 138 159 3,000  Climbing Seattle Center
Sun 08:05:27 PM 45.4094 -122.6358 340° North 144 166 2,900 -100 Descending Seattle Center
Sun 08:05:47 PM 45.4214 -122.6436 335° Northwest 136 157 2,900  Level Seattle Center
Sun 08:06:27 PM 45.4311 -122.6703 297° West 140 161 2,900  Level Seattle Center
Sun 08:06:48 PM 45.4350 -122.6903 285° West 135 155 2,900  Level Seattle Center
Sun 08:07:28 PM 45.4378 -122.7175 278° West 125 144 2,900 -98 Level Seattle Center
Sun 08:07:49 PM 45.4194 -122.7306 207° Southwest 142 163 2,800 -393 Descending Seattle Center
Sun 08:08:29 PM 45.4028 -122.7439 209° Southwest 139 160 2,500 -450 Descending Seattle Center

Login

Don't have an account? Register now (free) for customized features, flight alerts, and more!